Time;durP1;ratioP1;P1;durP2;ratioP2;P2;SDS_P1;SDS_P2;PMS_P1;PMS_P2;Temp;Humidity;BMP_temperature;BMP_pressure;BME280_temperature;BME280_humidity;BME280_pressure;Samples;Min_cycle;Max_cycle;Signal;HPM_P1;HPM_P2
2023/12/20 00:02:12;;;;;;;;;;;7.20;99.90;;;;;;5139357;27;19907;-71
2023/12/20 00:04:38;;;;;;;;;;;7.20;99.90;;;;;;5128693;27;19930;-71
2023/12/20 00:07:03;;;;;;;;;;;7.20;99.90;;;;;;5139195;27;20445;-71
2023/12/20 00:09:29;;;;;;;;;;;7.20;99.90;;;;;;5147698;27;19956;-71
2023/12/20 00:11:55;;;;;;;;;;;7.20;99.90;;;;;;5139519;27;19990;-71
2023/12/20 00:14:20;;;;;;;;;;;7.20;99.90;;;;;;5130359;27;19964;-71
2023/12/20 00:16:46;;;;;;;;;;;7.20;99.90;;;;;;5147449;27;19911;-71
2023/12/20 00:19:11;;;;;;;;;;;7.20;99.90;;;;;;5147321;27;19998;-71
2023/12/20 00:21:36;;;;;;;;;;;7.20;99.90;;;;;;5147908;27;19918;-71
2023/12/20 00:24:02;;;;;;;;;;;7.20;99.90;;;;;;5130126;27;19922;-71
2023/12/20 00:26:28;;;;;;;;;;;7.20;99.90;;;;;;5109125;28;19908;-71
2023/12/20 00:28:53;;;;;;;;;;;7.20;99.90;;;;;;5143764;27;19922;-71
2023/12/20 00:31:19;;;;;;;;;;;7.20;99.90;;;;;;5146998;27;19919;-71
2023/12/20 00:33:46;;;;;;;;;;;7.20;99.90;;;;;;5147030;27;19987;-71
2023/12/20 00:36:11;;;;;;;;;;;7.20;99.90;;;;;;5138926;27;20404;-71
2023/12/20 00:38:37;;;;;;;;;;;7.20;99.90;;;;;;5147399;27;19911;-71
2023/12/20 00:41:02;;;;;;;;;;;7.20;99.90;;;;;;5141203;27;19918;-71
2023/12/20 00:43:28;;;;;;;;;;;7.20;99.90;;;;;;5150977;27;19922;-71
2023/12/20 00:45:53;;;;;;;;;;;7.20;99.90;;;;;;5151347;27;19919;-71
2023/12/20 00:48:19;;;;;;;;;;;7.10;99.90;;;;;;5142664;27;20006;-71
2023/12/20 00:50:44;;;;;;;;;;;7.20;99.90;;;;;;5142789;27;19911;-72
2023/12/20 00:53:10;;;;;;;;;;;7.10;99.90;;;;;;5145999;27;19918;-71
2023/12/20 00:55:35;;;;;;;;;;;7.10;99.90;;;;;;5139048;27;20491;-71
2023/12/20 00:58:01;;;;;;;;;;;7.20;99.90;;;;;;5138793;27;19929;-71
2023/12/20 01:00:27;;;;;;;;;;;7.10;99.90;;;;;;5133795;27;19914;-71
2023/12/20 01:02:52;;;;;;;;;;;7.10;99.90;;;;;;5134657;27;19950;-71
2023/12/20 01:05:19;;;;;;;;;;;7.10;99.90;;;;;;5139262;27;19952;-71
2023/12/20 01:07:44;;;;;;;;;;;7.10;99.90;;;;;;5137249;27;19975;-71
2023/12/20 01:10:10;;;;;;;;;;;7.10;99.90;;;;;;5150582;27;20707;-71
2023/12/20 01:12:36;;;;;;;;;;;7.10;99.90;;;;;;5145682;27;19907;-71
2023/12/20 01:15:01;;;;;;;;;;;7.10;99.90;;;;;;5138594;27;19914;-71
2023/12/20 01:17:27;;;;;;;;;;;7.10;99.90;;;;;;5138980;27;19908;-71
2023/12/20 01:19:52;;;;;;;;;;;7.10;99.90;;;;;;5138157;27;20040;-71
2023/12/20 01:22:18;;;;;;;;;;;7.10;99.90;;;;;;5150998;27;19911;-71
2023/12/20 01:24:44;;;;;;;;;;;7.10;99.90;;;;;;5142360;27;20300;-71
2023/12/20 01:27:10;;;;;;;;;;;7.10;99.90;;;;;;5148610;27;19955;-71
2023/12/20 01:29:36;;;;;;;;;;;7.10;99.90;;;;;;5135949;27;19915;-71
2023/12/20 01:32:01;;;;;;;;;;;7.10;99.90;;;;;;5142699;27;20383;-71
2023/12/20 01:34:27;;;;;;;;;;;7.00;99.90;;;;;;5142164;27;19914;-71
2023/12/20 01:36:52;;;;;;;;;;;7.10;99.90;;;;;;5142297;27;19915;-71
2023/12/20 01:39:18;;;;;;;;;;;7.10;99.90;;;;;;5148701;27;19907;-71
2023/12/20 01:41:43;;;;;;;;;;;7.10;99.90;;;;;;5131215;27;19923;-71
2023/12/20 01:44:09;;;;;;;;;;;7.00;99.90;;;;;;5140961;27;19915;-71
2023/12/20 01:46:34;;;;;;;;;;;7.00;99.90;;;;;;5149288;27;19918;-71
2023/12/20 01:49:00;;;;;;;;;;;7.00;99.90;;;;;;5149201;27;19911;-71
2023/12/20 01:51:27;;;;;;;;;;;7.00;99.90;;;;;;5129542;27;19911;-71
2023/12/20 01:53:53;;;;;;;;;;;7.00;99.90;;;;;;5146267;27;19914;-71
2023/12/20 01:56:19;;;;;;;;;;;7.00;99.90;;;;;;5126991;27;20257;-71
2023/12/20 01:58:46;;;;;;;;;;;7.00;99.90;;;;;;5137553;27;19919;-71
2023/12/20 02:01:12;;;;;;;;;;;7.00;99.90;;;;;;5147112;27;19918;-71
2023/12/20 02:03:37;;;;;;;;;;;7.00;99.90;;;;;;5143411;27;19927;-71
2023/12/20 02:06:04;;;;;;;;;;;7.00;99.90;;;;;;5140142;27;19911;-71
2023/12/20 02:08:29;;;;;;;;;;;7.00;99.90;;;;;;5145024;27;19959;-71
2023/12/20 02:10:56;;;;;;;;;;;7.00;99.90;;;;;;5145449;27;20005;-71
2023/12/20 02:13:21;;;;;;;;;;;7.00;99.90;;;;;;5146199;27;19911;-71
2023/12/20 02:15:47;;;;;;;;;;;7.00;99.90;;;;;;5143525;27;19907;-71
2023/12/20 02:18:15;;;;;;;;;;;7.00;99.90;;;;;;5138367;27;19944;-71
2023/12/20 02:20:40;;;;;;;;;;;7.00;99.90;;;;;;5134268;27;19914;-71
2023/12/20 02:23:06;;;;;;;;;;;6.90;99.90;;;;;;5136954;27;19911;-71
2023/12/20 02:25:31;;;;;;;;;;;6.90;99.90;;;;;;5135787;27;20502;-71
2023/12/20 02:27:57;;;;;;;;;;;6.90;99.90;;;;;;5140361;27;19919;-71
2023/12/20 02:30:23;;;;;;;;;;;6.90;99.90;;;;;;5148681;27;19911;-71
2023/12/20 02:32:49;;;;;;;;;;;6.90;99.90;;;;;;5139500;27;20059;-71
2023/12/20 02:35:15;;;;;;;;;;;6.90;99.90;;;;;;5147251;27;20397;-71
2023/12/20 02:37:40;;;;;;;;;;;6.90;99.90;;;;;;5139960;27;19998;-71
2023/12/20 02:40:06;;;;;;;;;;;6.90;99.90;;;;;;5137739;27;20456;-71
2023/12/20 02:42:32;;;;;;;;;;;6.90;99.90;;;;;;5136377;27;20368;-71
2023/12/20 02:44:57;;;;;;;;;;;6.90;99.90;;;;;;5135836;27;19911;-71
2023/12/20 02:47:23;;;;;;;;;;;6.90;99.90;;;;;;5136174;27;20698;-71
2023/12/20 02:49:49;;;;;;;;;;;6.80;99.90;;;;;;5115987;27;19911;-71
2023/12/20 02:52:14;;;;;;;;;;;6.80;99.90;;;;;;5139781;27;20604;-71
2023/12/20 02:54:40;;;;;;;;;;;6.80;99.90;;;;;;5136163;27;20536;-71
2023/12/20 02:57:06;;;;;;;;;;;6.80;99.90;;;;;;5129847;27;19938;-71
2023/12/20 02:59:31;;;;;;;;;;;6.80;99.90;;;;;;5127412;27;19911;-72
2023/12/20 03:01:57;;;;;;;;;;;6.80;99.90;;;;;;5116727;27;19960;-71
2023/12/20 03:04:22;;;;;;;;;;;6.80;99.90;;;;;;5144577;27;19930;-71
2023/12/20 03:06:48;;;;;;;;;;;6.80;99.90;;;;;;5143159;27;20010;-71
2023/12/20 03:09:13;;;;;;;;;;;6.80;99.90;;;;;;5138800;27;20593;-71
2023/12/20 03:11:39;;;;;;;;;;;6.80;99.90;;;;;;5139093;27;20265;-71
2023/12/20 03:14:04;;;;;;;;;;;6.80;99.90;;;;;;5129533;27;20334;-71
2023/12/20 03:16:31;;;;;;;;;;;6.80;99.90;;;;;;5113084;27;19911;-71
2023/12/20 03:18:56;;;;;;;;;;;6.80;99.90;;;;;;5112352;27;20426;-71
2023/12/20 03:21:22;;;;;;;;;;;6.80;99.90;;;;;;5143897;27;19911;-71
2023/12/20 03:23:47;;;;;;;;;;;6.80;99.90;;;;;;5120185;27;19915;-71
2023/12/20 03:26:14;;;;;;;;;;;6.80;99.90;;;;;;5134960;27;19911;-71
2023/12/20 03:28:39;;;;;;;;;;;6.80;99.90;;;;;;5138763;27;20350;-71
2023/12/20 03:31:05;;;;;;;;;;;6.80;99.90;;;;;;5137370;27;19955;-71
2023/12/20 03:33:30;;;;;;;;;;;6.80;99.90;;;;;;5138721;27;19911;-71
2023/12/20 03:35:56;;;;;;;;;;;6.80;99.90;;;;;;5147689;27;19911;-71
2023/12/20 03:38:23;;;;;;;;;;;6.80;99.90;;;;;;5143899;27;20487;-71
2023/12/20 03:40:49;;;;;;;;;;;6.80;99.90;;;;;;5114607;27;19990;-71
2023/12/20 03:43:15;;;;;;;;;;;6.80;99.90;;;;;;5127287;27;19923;-71
2023/12/20 03:45:40;;;;;;;;;;;6.70;99.90;;;;;;5141244;27;19979;-71
2023/12/20 03:48:06;;;;;;;;;;;6.80;99.90;;;;;;5145881;27;20039;-71
2023/12/20 03:50:31;;;;;;;;;;;6.80;99.90;;;;;;5134798;27;19911;-71
2023/12/20 03:52:57;;;;;;;;;;;6.70;99.90;;;;;;5131233;27;19994;-71
2023/12/20 03:55:22;;;;;;;;;;;6.70;99.90;;;;;;5107665;27;20241;-72
2023/12/20 03:57:48;;;;;;;;;;;6.70;99.90;;;;;;5135324;27;19912;-71
2023/12/20 04:00:14;;;;;;;;;;;6.70;99.90;;;;;;5133814;27;19980;-71
2023/12/20 04:02:40;;;;;;;;;;;6.70;99.90;;;;;;5131287;27;20304;-71
2023/12/20 04:05:06;;;;;;;;;;;6.70;99.90;;;;;;5144881;27;19926;-71
2023/12/20 04:07:31;;;;;;;;;;;6.70;99.90;;;;;;5137398;27;19911;-71
2023/12/20 04:09:57;;;;;;;;;;;6.70;99.90;;;;;;5136311;27;19990;-71
2023/12/20 04:12:22;;;;;;;;;;;6.60;99.90;;;;;;5133470;27;19919;-71
2023/12/20 04:14:48;;;;;;;;;;;6.70;99.90;;;;;;5142091;27;19983;-71
2023/12/20 04:17:15;;;;;;;;;;;6.60;99.90;;;;;;5149637;27;19919;-71
2023/12/20 04:19:41;;;;;;;;;;;6.60;99.90;;;;;;5144884;27;19911;-71
2023/12/20 04:22:07;;;;;;;;;;;6.60;99.90;;;;;;5132909;27;19908;-71
2023/12/20 04:24:32;;;;;;;;;;;6.60;99.90;;;;;;5138631;27;19918;-71
2023/12/20 04:26:58;;;;;;;;;;;6.60;99.90;;;;;;5106631;27;19979;-71
2023/12/20 04:29:23;;;;;;;;;;;6.60;99.90;;;;;;5127651;27;20023;-71
2023/12/20 04:31:51;;;;;;;;;;;6.60;99.90;;;;;;5128502;27;19924;-71
2023/12/20 04:34:16;;;;;;;;;;;6.60;99.90;;;;;;5135175;27;19954;-71
2023/12/20 04:36:42;;;;;;;;;;;6.60;99.90;;;;;;5142354;27;20383;-71
2023/12/20 04:39:07;;;;;;;;;;;6.60;99.90;;;;;;5147911;27;19913;-71
2023/12/20 04:41:33;;;;;;;;;;;6.60;99.90;;;;;;5135277;27;20460;-71
2023/12/20 04:43:58;;;;;;;;;;;6.60;99.90;;;;;;5128715;27;19916;-71
2023/12/20 04:46:24;;;;;;;;;;;6.60;99.90;;;;;;5129247;27;20022;-71
2023/12/20 04:48:49;;;;;;;;;;;6.60;99.90;;;;;;5129566;27;20415;-71
2023/12/20 04:51:15;;;;;;;;;;;6.60;99.90;;;;;;5110108;27;19915;-71
2023/12/20 04:53:40;;;;;;;;;;;6.60;99.90;;;;;;5135865;27;19984;-71
2023/12/20 04:56:06;;;;;;;;;;;6.50;99.90;;;;;;5149879;27;19922;-71
2023/12/20 04:58:31;;;;;;;;;;;6.50;99.90;;;;;;5150496;27;19911;-71
2023/12/20 05:00:57;;;;;;;;;;;6.60;99.90;;;;;;5141395;27;19907;-71
2023/12/20 05:03:22;;;;;;;;;;;6.60;99.90;;;;;;5139265;27;19918;-71
2023/12/20 05:05:48;;;;;;;;;;;6.60;99.90;;;;;;5137739;27;19950;-72
2023/12/20 05:08:13;;;;;;;;;;;6.60;99.90;;;;;;5136887;27;19969;-72
2023/12/20 05:10:40;;;;;;;;;;;6.60;99.90;;;;;;5142259;27;19945;-72
2023/12/20 05:13:05;;;;;;;;;;;6.60;99.90;;;;;;5139632;27;20375;-72
2023/12/20 05:15:31;;;;;;;;;;;6.60;99.90;;;;;;5141858;27;19911;-71
2023/12/20 05:17:56;;;;;;;;;;;6.50;99.90;;;;;;5142088;27;19958;-71
2023/12/20 05:20:23;;;;;;;;;;;6.60;99.90;;;;;;5139821;27;19911;-71
2023/12/20 05:22:48;;;;;;;;;;;6.50;99.90;;;;;;5142860;27;19911;-71
2023/12/20 05:25:14;;;;;;;;;;;6.50;99.90;;;;;;5120862;27;19919;-71
2023/12/20 05:27:40;;;;;;;;;;;6.50;99.90;;;;;;5129973;27;19954;-71
2023/12/20 05:30:05;;;;;;;;;;;6.50;99.90;;;;;;5128655;27;19911;-71
2023/12/20 05:32:31;;;;;;;;;;;6.50;99.90;;;;;;5145350;27;19919;-71
2023/12/20 05:34:56;;;;;;;;;;;6.50;99.90;;;;;;5145376;27;19908;-71
2023/12/20 05:37:24;;;;;;;;;;;6.50;99.90;;;;;;5144773;27;20404;-72
2023/12/20 05:39:49;;;;;;;;;;;6.50;99.90;;;;;;5143571;27;20026;-71
2023/12/20 05:42:15;;;;;;;;;;;6.50;99.90;;;;;;5140169;27;19915;-71
2023/12/20 05:44:40;;;;;;;;;;;6.50;99.90;;;;;;5148904;27;19922;-71
2023/12/20 05:47:06;;;;;;;;;;;6.50;99.90;;;;;;5139407;27;19914;-71
2023/12/20 05:49:31;;;;;;;;;;;6.50;99.90;;;;;;5121274;27;19907;-71
2023/12/20 05:51:57;;;;;;;;;;;6.50;99.90;;;;;;5140033;27;19942;-71
2023/12/20 05:54:22;;;;;;;;;;;6.50;99.90;;;;;;5128523;27;20260;-71
2023/12/20 05:56:48;;;;;;;;;;;6.50;99.90;;;;;;5152583;27;19912;-71
2023/12/20 05:59:14;;;;;;;;;;;6.50;99.90;;;;;;5146433;27;19915;-71
2023/12/20 06:01:39;;;;;;;;;;;6.50;99.90;;;;;;5134795;27;19911;-71
2023/12/20 06:04:05;;;;;;;;;;;6.50;99.90;;;;;;5135905;27;19915;-71
2023/12/20 06:06:30;;;;;;;;;;;6.50;99.90;;;;;;5128672;27;19964;-71
2023/12/20 06:08:56;;;;;;;;;;;6.50;99.90;;;;;;5128396;27;19911;-71
2023/12/20 06:11:21;;;;;;;;;;;6.50;99.90;;;;;;5139432;27;19919;-71
2023/12/20 06:13:48;;;;;;;;;;;6.50;99.90;;;;;;5137226;27;19993;-71
2023/12/20 06:16:14;;;;;;;;;;;6.50;99.90;;;;;;5109569;27;19983;-71
2023/12/20 06:18:40;;;;;;;;;;;6.50;99.90;;;;;;5133984;27;19911;-71
2023/12/20 06:21:07;;;;;;;;;;;6.50;99.90;;;;;;5139504;27;20275;-71
2023/12/20 06:23:32;;;;;;;;;;;6.50;99.90;;;;;;5133131;27;19955;-71
2023/12/20 06:25:58;;;;;;;;;;;6.50;99.90;;;;;;5134172;27;19911;-71
2023/12/20 06:28:23;;;;;;;;;;;6.40;99.90;;;;;;5139289;27;19942;-71
2023/12/20 06:30:49;;;;;;;;;;;6.40;99.90;;;;;;5140722;27;19911;-71
2023/12/20 06:33:15;;;;;;;;;;;6.50;99.90;;;;;;5135932;27;20002;-71
2023/12/20 06:35:40;;;;;;;;;;;6.40;99.90;;;;;;5141760;27;20010;-71
2023/12/20 06:38:06;;;;;;;;;;;6.40;99.90;;;;;;5128218;27;20001;-71
2023/12/20 06:40:31;;;;;;;;;;;6.40;99.90;;;;;;5127202;27;19919;-71
2023/12/20 06:42:57;;;;;;;;;;;6.40;99.90;;;;;;5135280;27;19907;-71
2023/12/20 06:45:23;;;;;;;;;;;6.50;99.90;;;;;;5130736;27;20002;-71
2023/12/20 06:47:48;;;;;;;;;;;6.40;99.90;;;;;;5130941;27;20047;-71
2023/12/20 06:50:14;;;;;;;;;;;6.50;99.90;;;;;;5129159;27;19916;-71
2023/12/20 06:52:39;;;;;;;;;;;6.40;99.90;;;;;;5126062;27;19911;-71
2023/12/20 06:55:05;;;;;;;;;;;6.40;99.90;;;;;;5127360;27;19929;-71
2023/12/20 06:57:30;;;;;;;;;;;6.40;99.90;;;;;;5108911;27;19918;-71
2023/12/20 06:59:57;;;;;;;;;;;6.40;99.90;;;;;;5142668;27;19959;-71
2023/12/20 07:02:23;;;;;;;;;;;6.40;99.90;;;;;;5126928;27;19915;-71
2023/12/20 07:04:48;;;;;;;;;;;6.40;99.90;;;;;;5142061;27;19915;-71
2023/12/20 07:07:14;;;;;;;;;;;6.40;99.90;;;;;;5145229;27;20003;-71
2023/12/20 07:09:42;;;;;;;;;;;6.40;99.90;;;;;;5131888;27;20002;-71
2023/12/20 07:12:08;;;;;;;;;;;6.40;99.90;;;;;;5119394;27;19911;-71
2023/12/20 07:14:33;;;;;;;;;;;6.40;99.90;;;;;;5127626;27;19931;-71
2023/12/20 07:16:59;;;;;;;;;;;6.40;99.90;;;;;;5126164;27;19915;-71
2023/12/20 07:19:24;;;;;;;;;;;6.40;99.90;;;;;;5126131;27;19919;-71
2023/12/20 07:21:50;;;;;;;;;;;6.40;99.90;;;;;;5126781;27;20011;-71
2023/12/20 07:24:15;;;;;;;;;;;6.40;99.90;;;;;;5124763;27;20260;-71
2023/12/20 07:26:41;;;;;;;;;;;6.40;99.90;;;;;;5134803;27;19911;-71
2023/12/20 07:29:06;;;;;;;;;;;6.40;99.90;;;;;;5134486;27;19911;-71
2023/12/20 07:31:32;;;;;;;;;;;6.40;99.90;;;;;;5134770;27;20319;-71
2023/12/20 07:33:57;;;;;;;;;;;6.40;99.90;;;;;;5134398;27;19911;-71
2023/12/20 07:36:23;;;;;;;;;;;6.40;99.90;;;;;;5147176;27;19971;-71
2023/12/20 07:38:48;;;;;;;;;;;6.40;99.90;;;;;;5126203;27;19968;-71
2023/12/20 07:41:15;;;;;;;;;;;6.40;99.90;;;;;;5126549;27;19915;-71
2023/12/20 07:43:41;;;;;;;;;;;6.40;99.90;;;;;;5126197;27;19923;-71
2023/12/20 07:46:08;;;;;;;;;;;6.40;99.90;;;;;;5142789;27;20275;-72
2023/12/20 07:48:35;;;;;;;;;;;6.40;99.90;;;;;;5146231;27;19907;-71
2023/12/20 07:51:01;;;;;;;;;;;6.40;99.90;;;;;;5126883;27;19918;-71
2023/12/20 07:53:27;;;;;;;;;;;6.40;99.90;;;;;;5141869;27;19911;-71
2023/12/20 07:55:52;;;;;;;;;;;6.40;99.90;;;;;;5139189;27;19915;-71
2023/12/20 07:58:18;;;;;;;;;;;6.40;99.90;;;;;;5134042;27;19907;-71
2023/12/20 08:00:44;;;;;;;;;;;6.40;99.90;;;;;;5140003;27;20019;-71
2023/12/20 08:03:09;;;;;;;;;;;6.40;99.90;;;;;;5137631;27;20655;-71
2023/12/20 08:05:35;;;;;;;;;;;6.40;99.90;;;;;;5126827;27;19911;-71
2023/12/20 08:08:00;;;;;;;;;;;6.40;99.90;;;;;;5142697;27;19915;-71
2023/12/20 08:10:27;;;;;;;;;;;6.40;99.90;;;;;;5128161;27;19958;-71
2023/12/20 08:12:52;;;;;;;;;;;6.40;99.90;;;;;;5139323;27;20474;-71
2023/12/20 08:15:18;;;;;;;;;;;6.40;99.90;;;;;;5141523;27;19912;-71
2023/12/20 08:17:43;;;;;;;;;;;6.40;99.90;;;;;;5123378;27;20347;-71
2023/12/20 08:20:09;;;;;;;;;;;6.40;99.90;;;;;;5139090;27;19911;-71
2023/12/20 08:22:34;;;;;;;;;;;6.40;99.90;;;;;;5106761;28;19912;-71
2023/12/20 08:25:00;;;;;;;;;;;6.40;99.90;;;;;;5126839;27;20288;-71
2023/12/20 08:27:25;;;;;;;;;;;6.40;99.90;;;;;;5127260;27;19953;-71
2023/12/20 08:29:51;;;;;;;;;;;6.40;99.90;;;;;;5130253;27;19926;-71
2023/12/20 08:32:16;;;;;;;;;;;6.40;99.90;;;;;;5128637;27;19927;-71
2023/12/20 08:34:42;;;;;;;;;;;6.40;99.90;;;;;;5135827;27;19918;-71
2023/12/20 08:37:07;;;;;;;;;;;6.50;99.90;;;;;;5127473;27;19998;-71
2023/12/20 08:39:33;;;;;;;;;;;6.40;99.90;;;;;;5137547;27;20694;-71
2023/12/20 08:41:59;;;;;;;;;;;6.40;99.90;;;;;;5137447;27;20444;-71
2023/12/20 08:44:24;;;;;;;;;;;6.50;99.90;;;;;;5134466;27;19942;-71
2023/12/20 08:46:50;;;;;;;;;;;6.40;99.90;;;;;;5140864;27;20002;-71
2023/12/20 08:49:15;;;;;;;;;;;6.40;99.90;;;;;;5136917;27;19942;-71
2023/12/20 08:51:41;;;;;;;;;;;6.40;99.90;;;;;;5127668;27;19943;-71
2023/12/20 08:54:10;;;;;;;;;;;6.40;99.90;;;;;;5141885;27;19942;-71
2023/12/20 08:56:35;;;;;;;;;;;6.40;99.90;;;;;;5146005;27;19946;-72
2023/12/20 08:59:01;;;;;;;;;;;6.40;99.90;;;;;;5146179;27;19939;-71
2023/12/20 09:01:26;;;;;;;;;;;6.40;99.90;;;;;;5138750;27;19915;-71
2023/12/20 09:03:52;;;;;;;;;;;6.50;99.90;;;;;;5146217;27;19963;-71
2023/12/20 09:06:17;;;;;;;;;;;6.40;99.90;;;;;;5137233;27;19908;-71
2023/12/20 09:08:43;;;;;;;;;;;6.50;99.90;;;;;;5119116;27;20546;-71
2023/12/20 09:11:08;;;;;;;;;;;6.50;99.90;;;;;;5127416;27;20015;-71
2023/12/20 09:13:34;;;;;;;;;;;6.50;99.90;;;;;;5149746;27;19915;-71
2023/12/20 09:15:59;;;;;;;;;;;6.40;99.90;;;;;;5149416;27;20352;-71
2023/12/20 09:18:25;;;;;;;;;;;6.50;99.90;;;;;;5149386;27;20687;-71
2023/12/20 09:20:50;;;;;;;;;;;6.50;99.90;;;;;;5148979;27;19918;-71
2023/12/20 09:23:17;;;;;;;;;;;6.50;99.90;;;;;;5136158;27;19936;-71
2023/12/20 09:25:42;;;;;;;;;;;6.50;99.90;;;;;;5122892;27;19938;-71
2023/12/20 09:28:08;;;;;;;;;;;6.50;99.90;;;;;;5148476;27;20030;-71
2023/12/20 09:30:35;;;;;;;;;;;6.50;99.90;;;;;;5132241;27;19954;-71
2023/12/20 09:33:00;;;;;;;;;;;6.50;99.90;;;;;;5130741;27;20325;-71
2023/12/20 09:35:26;;;;;;;;;;;6.50;99.90;;;;;;5143577;27;19914;-71
2023/12/20 09:37:51;;;;;;;;;;;6.50;99.90;;;;;;5136945;27;19918;-71
2023/12/20 09:40:20;;;;;;;;;;;6.50;99.90;;;;;;5137557;27;19915;-71
2023/12/20 09:42:45;;;;;;;;;;;6.50;99.90;;;;;;5149182;27;19933;-71
2023/12/20 09:45:13;;;;;;;;;;;6.50;99.90;;;;;;5141825;27;19915;-71
2023/12/20 09:47:39;;;;;;;;;;;6.50;99.90;;;;;;5132945;27;19911;-71
2023/12/20 09:50:05;;;;;;;;;;;6.50;99.90;;;;;;5146961;27;19922;-71
2023/12/20 09:52:31;;;;;;;;;;;6.50;99.90;;;;;;5119796;27;19911;-71
2023/12/20 09:54:57;;;;;;;;;;;6.50;99.90;;;;;;5136553;27;20217;-71
2023/12/20 09:57:22;;;;;;;;;;;6.50;99.90;;;;;;5129490;27;19919;-72
2023/12/20 09:59:48;;;;;;;;;;;6.60;99.90;;;;;;5121124;27;21133;-71
2023/12/20 10:02:16;;;;;;;;;;;6.60;99.90;;;;;;5136565;27;19958;-71
2023/12/20 10:04:46;;;;;;;;;;;6.60;99.90;;;;;;5140388;27;19922;-71
2023/12/20 10:07:12;;;;;;;;;;;6.60;99.90;;;;;;5130308;27;19973;-71
2023/12/20 10:09:38;;;;;;;;;;;6.60;99.90;;;;;;5141408;27;20336;-71
2023/12/20 10:12:05;;;;;;;;;;;6.60;99.90;;;;;;5129645;27;19923;-71
2023/12/20 10:14:30;;;;;;;;;;;6.60;99.90;;;;;;5119982;27;19918;-71
2023/12/20 10:17:01;;;;;;;;;;;6.60;99.90;;;;;;5127541;27;20264;-71
2023/12/20 10:19:27;;;;;;;;;;;6.60;99.90;;;;;;5130632;27;19926;-71
2023/12/20 10:21:52;;;;;;;;;;;6.60;99.90;;;;;;5126191;27;19915;-71
2023/12/20 10:24:18;;;;;;;;;;;6.60;99.90;;;;;;5125581;27;19991;-71
2023/12/20 10:26:44;;;;;;;;;;;6.60;99.90;;;;;;5116659;27;19929;-71
2023/12/20 10:29:09;;;;;;;;;;;6.60;99.90;;;;;;5128816;27;19911;-71
2023/12/20 10:31:36;;;;;;;;;;;6.60;99.90;;;;;;5124144;27;19919;-71
2023/12/20 10:34:02;;;;;;;;;;;6.60;99.90;;;;;;5124994;27;19964;-71
2023/12/20 10:36:29;;;;;;;;;;;6.70;99.90;;;;;;5130769;27;19907;-71
2023/12/20 10:38:58;;;;;;;;;;;6.70;99.90;;;;;;5126463;27;19911;-71
2023/12/20 10:41:28;;;;;;;;;;;6.70;99.90;;;;;;5109272;27;19922;-71
2023/12/20 10:44:01;;;;;;;;;;;6.70;99.90;;;;;;5128265;27;20410;-71
2023/12/20 10:46:26;;;;;;;;;;;6.70;99.90;;;;;;5111745;27;20355;-71
2023/12/20 10:48:56;;;;;;;;;;;6.70;99.90;;;;;;5109151;27;19959;-71
2023/12/20 10:51:22;;;;;;;;;;;6.70;99.90;;;;;;5143417;27;19907;-71
2023/12/20 10:53:48;;;;;;;;;;;6.70;99.90;;;;;;5126747;27;19977;-71
2023/12/20 10:56:16;;;;;;;;;;;6.70;99.90;;;;;;5127259;27;20427;-71
2023/12/20 10:58:43;;;;;;;;;;;6.70;99.90;;;;;;5126244;27;19916;-72
2023/12/20 11:01:09;;;;;;;;;;;6.70;99.90;;;;;;5126484;27;20423;-71
2023/12/20 11:03:37;;;;;;;;;;;6.70;99.90;;;;;;5126345;27;19919;-71
2023/12/20 11:06:09;;;;;;;;;;;6.70;99.90;;;;;;5109480;27;20280;-72
2023/12/20 11:08:41;;;;;;;;;;;6.70;99.90;;;;;;5126618;27;19958;-71
2023/12/20 11:11:24;;;;;;;;;;;6.70;99.90;;;;;;5125032;27;19954;-71
2023/12/20 11:14:01;;;;;;;;;;;6.70;99.90;;;;;;5109605;27;20015;-71
2023/12/20 11:16:27;;;;;;;;;;;6.70;99.90;;;;;;5124697;27;20555;-71
2023/12/20 11:18:52;;;;;;;;;;;6.70;99.90;;;;;;5126733;27;19912;-71
2023/12/20 11:21:18;;;;;;;;;;;6.70;99.90;;;;;;5127298;27;19924;-71
2023/12/20 11:23:43;;;;;;;;;;;6.70;99.90;;;;;;5127606;27;19930;-71
2023/12/20 11:26:09;;;;;;;;;;;6.70;99.90;;;;;;5127219;27;19914;-71
2023/12/20 11:28:34;;;;;;;;;;;6.70;99.90;;;;;;5130154;27;19911;-71
2023/12/20 11:31:01;;;;;;;;;;;6.70;99.90;;;;;;5106707;27;20711;-71
2023/12/20 11:33:29;;;;;;;;;;;6.70;99.90;;;;;;5127639;27;19938;-71
2023/12/20 11:35:59;;;;;;;;;;;6.80;99.90;;;;;;5128208;27;19911;-71
2023/12/20 11:38:25;;;;;;;;;;;6.80;99.90;;;;;;5125225;27;20567;-71
2023/12/20 11:40:53;;;;;;;;;;;6.80;99.90;;;;;;5107434;27;20106;-71
2023/12/20 11:43:37;;;;;;;;;;;6.80;99.90;;;;;;5126978;27;19958;-71
2023/12/20 11:46:04;;;;;;;;;;;6.80;99.90;;;;;;5125258;27;19960;-71
2023/12/20 11:48:31;;;;;;;;;;;6.80;99.90;;;;;;5123339;27;19915;-71
2023/12/20 11:50:56;;;;;;;;;;;6.80;99.90;;;;;;5125633;27;20347;-71
2023/12/20 11:53:22;;;;;;;;;;;6.90;99.90;;;;;;5133226;27;19911;-71
2023/12/20 11:55:48;;;;;;;;;;;6.90;99.90;;;;;;5127304;27;20260;-72
2023/12/20 11:58:16;;;;;;;;;;;6.90;99.90;;;;;;5125503;27;19947;-72
2023/12/20 12:00:43;;;;;;;;;;;6.90;99.90;;;;;;5130341;27;19912;-71
2023/12/20 12:03:09;;;;;;;;;;;6.90;99.90;;;;;;5125281;27;19911;-71
2023/12/20 12:05:35;;;;;;;;;;;6.90;99.90;;;;;;5102472;27;19915;-72
2023/12/20 12:08:01;;;;;;;;;;;6.90;99.90;;;;;;5137440;27;19911;-71
2023/12/20 12:10:26;;;;;;;;;;;6.90;99.90;;;;;;5128816;27;19907;-71
2023/12/20 12:12:52;;;;;;;;;;;6.90;99.90;;;;;;5131663;27;19960;-71
2023/12/20 12:15:17;;;;;;;;;;;6.90;99.90;;;;;;5129678;27;19990;-71
2023/12/20 12:17:43;;;;;;;;;;;6.90;99.90;;;;;;5123044;28;19911;-71
2023/12/20 12:20:09;;;;;;;;;;;6.90;99.90;;;;;;5107707;27;19918;-71
2023/12/20 12:22:36;;;;;;;;;;;6.90;99.90;;;;;;5138370;27;19950;-71
2023/12/20 12:25:12;;;;;;;;;;;6.90;99.90;;;;;;5126899;27;19999;-71
2023/12/20 12:27:39;;;;;;;;;;;6.90;99.90;;;;;;5139222;27;19918;-71
2023/12/20 12:30:07;;;;;;;;;;;6.90;99.90;;;;;;5124700;28;19939;-71
2023/12/20 12:32:32;;;;;;;;;;;6.90;99.90;;;;;;5117033;27;19923;-71
2023/12/20 12:34:58;;;;;;;;;;;6.90;99.90;;;;;;5139253;27;19914;-71
2023/12/20 12:37:24;;;;;;;;;;;6.90;99.90;;;;;;5130872;27;19919;-72
2023/12/20 12:39:50;;;;;;;;;;;6.90;99.90;;;;;;5144311;27;19911;-71
2023/12/20 12:42:15;;;;;;;;;;;6.90;99.90;;;;;;5140705;27;20326;-71
2023/12/20 12:44:41;;;;;;;;;;;6.90;99.90;;;;;;5129924;27;20337;-71
2023/12/20 12:47:06;;;;;;;;;;;6.90;99.90;;;;;;5138042;27;20260;-71
2023/12/20 12:49:32;;;;;;;;;;;6.90;99.90;;;;;;5128479;27;19911;-71
2023/12/20 12:51:58;;;;;;;;;;;6.90;99.90;;;;;;5127757;27;19972;-71
2023/12/20 12:54:24;;;;;;;;;;;6.90;99.90;;;;;;5126670;27;19912;-71
2023/12/20 12:56:50;;;;;;;;;;;6.90;99.90;;;;;;5130121;27;20199;-71
2023/12/20 12:59:16;;;;;;;;;;;6.90;99.90;;;;;;5131687;27;20026;-71
2023/12/20 13:01:41;;;;;;;;;;;6.90;99.90;;;;;;5132973;27;20538;-72
2023/12/20 13:04:10;;;;;;;;;;;6.90;99.90;;;;;;5129151;27;20936;-71
2023/12/20 13:06:38;;;;;;;;;;;6.90;99.90;;;;;;5128313;27;19908;-71
2023/12/20 13:09:04;;;;;;;;;;;6.90;99.90;;;;;;5134751;27;19938;-71
2023/12/20 13:11:31;;;;;;;;;;;6.90;99.90;;;;;;5128844;27;19907;-71
2023/12/20 13:13:57;;;;;;;;;;;6.90;99.90;;;;;;5128398;27;20507;-71
2023/12/20 13:16:23;;;;;;;;;;;6.90;99.90;;;;;;5135839;27;19911;-71
2023/12/20 13:18:48;;;;;;;;;;;6.90;99.90;;;;;;5128936;27;19911;-71
2023/12/20 13:21:14;;;;;;;;;;;6.90;99.90;;;;;;5130751;27;19916;-71
2023/12/20 13:23:39;;;;;;;;;;;6.90;99.90;;;;;;5113291;27;19922;-71
2023/12/20 13:26:05;;;;;;;;;;;7.00;99.90;;;;;;5129114;27;19931;-71
2023/12/20 13:28:31;;;;;;;;;;;7.00;99.90;;;;;;5128736;27;19964;-71
2023/12/20 13:30:56;;;;;;;;;;;6.90;99.90;;;;;;5126543;27;19922;-72
2023/12/20 13:33:22;;;;;;;;;;;7.00;99.90;;;;;;5129034;27;19911;-72
2023/12/20 13:35:47;;;;;;;;;;;6.90;99.90;;;;;;5128317;27;20267;-71
2023/12/20 13:38:13;;;;;;;;;;;6.90;99.90;;;;;;5111384;27;19911;-71
2023/12/20 13:40:38;;;;;;;;;;;7.00;99.90;;;;;;5139790;27;19953;-71
2023/12/20 13:43:04;;;;;;;;;;;7.00;99.90;;;;;;5139443;27;20328;-71
2023/12/20 13:45:29;;;;;;;;;;;6.90;99.90;;;;;;5130577;27;19926;-71
2023/12/20 13:47:55;;;;;;;;;;;6.90;99.90;;;;;;5127414;27;19920;-71
2023/12/20 13:50:21;;;;;;;;;;;7.00;99.90;;;;;;5130446;27;20280;-72
2023/12/20 13:52:47;;;;;;;;;;;7.00;99.90;;;;;;5128608;27;19965;-71
2023/12/20 13:55:12;;;;;;;;;;;6.90;99.90;;;;;;5126489;27;19938;-71
2023/12/20 13:57:39;;;;;;;;;;;6.90;99.90;;;;;;5126224;27;19911;-71
2023/12/20 14:00:05;;;;;;;;;;;6.90;99.90;;;;;;5127762;27;19929;-71
2023/12/20 14:02:31;;;;;;;;;;;6.90;99.90;;;;;;5126849;27;19912;-72
2023/12/20 14:04:56;;;;;;;;;;;6.90;99.90;;;;;;5127524;27;19960;-71
2023/12/20 14:07:22;;;;;;;;;;;6.90;99.90;;;;;;5127271;27;20363;-71
2023/12/20 14:09:48;;;;;;;;;;;6.90;99.90;;;;;;5126715;27;19915;-71
2023/12/20 14:12:14;;;;;;;;;;;6.90;99.90;;;;;;5127990;27;19907;-72
2023/12/20 14:14:39;;;;;;;;;;;6.90;99.90;;;;;;5128723;27;19912;-71
2023/12/20 14:17:08;;;;;;;;;;;6.90;99.90;;;;;;5128326;27;20336;-71
2023/12/20 14:19:34;;;;;;;;;;;6.90;99.90;;;;;;5128148;27;19979;-71
2023/12/20 14:22:01;;;;;;;;;;;6.90;99.90;;;;;;5128593;27;20527;-71
2023/12/20 14:24:27;;;;;;;;;;;6.90;99.90;;;;;;5136649;27;19922;-71